Misión y Visión

La misión es proporcionar información fiable a la navegación aérea, contribuyendo a la seguridad, regularidad y eficiencia de la Navegación Aérea Internacional

La visión es contribuir sustancialmente al desarrollo de conocimientos y a la utilización de la meteorología aeronáutica a nivel nacional e internacional, mediante la innovación y la coparticipación con sectores sociales y productivos de la sociedad.

 
  Inicio
  Metar
  Taf
  Wintemp
  SIGMET
  Avisos
  Pronósticos
  Carpeta Meteorologica
  Imágenes Satelitales
  Climatología Aeronáutica
   
  ¿Quienes Somos?
  Contacto
  Eventos
Taf

 

IMÁGENES DEL AEROPUERTO
(EN CONSTRUCCION)

 

PRONOSTICO DE AERÓDROMO
TAF / PROYECCION CLIMATICA
MES DE JULIO

 

AEROPUERTO ENRIQUE MALEK:

TAF COR MPDA 242300Z 2500/2512 20006KT 9999 SCT016 BKN090 PROB30 TEMPO 2500/2504 6000 TSRA SCT014CB BKN070


TAF:

TAF MPSM 242300Z 2500/2606 CNL=

 

AEROPUERTO PANAMA PACIFICO:

hola



TAF:



AEROPUERTO MARCOS A. GELABERT:

TAF MPMG 242300Z 2500/2512 18006KT 9999 SCT016CB BKN090 PROB30 TEMPO 2500/2504 6000 TSRA



TAF:



AEROPUERTO INTL. DE TOCUMEN:

TAF MPPA 242300Z 2500/2606 00000KT 9999 SCT018 BKN090 PROB30 TEMPO 2518/2522 16004KT 6000 TSRA SCT014CB BKN070



TAF:

TAF MPTO 242300Z 2500/2606 28005KT 9999 SCT018 BKN090 TEMPO 2500/2504 19004KT PROB30 TEMPO 2509/2513 6000 RA PROB30 TEMPO 2518/2522 6000 TSRA SCT014CB BKN070